createdAt,value
2022-10-25T00:01:16.502Z,92.51
2022-10-25T00:03:43.205Z,92.31
2022-10-25T00:06:10.946Z,92.17
2022-10-25T00:08:38.059Z,91.89
2022-10-25T00:11:06.241Z,92.33
2022-10-25T00:13:32.892Z,92.27
2022-10-25T00:15:59.484Z,92.67
2022-10-25T00:18:25.969Z,92.83
2022-10-25T00:20:53.624Z,93.02
2022-10-25T00:23:20.189Z,93.13
2022-10-25T00:25:46.793Z,93.02
2022-10-25T00:28:13.273Z,93.22
2022-10-25T00:30:39.735Z,93.39
2022-10-25T00:33:06.178Z,93.27
2022-10-25T00:35:36.642Z,93.76
2022-10-25T00:38:03.456Z,93.87
2022-10-25T00:40:29.916Z,93.57
2022-10-25T00:42:56.376Z,93.81
2022-10-25T00:45:26.513Z,93.76
2022-10-25T00:48:04.535Z,93.46
2022-10-25T00:50:53.627Z,93.08
2022-10-25T00:53:25.422Z,93.32
2022-10-25T00:56:08.421Z,93.65
2022-10-25T00:58:37.368Z,94.09
2022-10-25T01:01:06.280Z,93.81
2022-10-25T01:03:36.828Z,94.04
2022-10-25T01:06:07.703Z,94.02
2022-10-25T01:08:34.525Z,94.24
2022-10-25T01:11:00.987Z,94.47
2022-10-25T01:13:27.527Z,94.28
2022-10-25T01:16:15.436Z,94.11
2022-10-25T01:18:54.041Z,93.62
2022-10-25T01:21:44.455Z,93.49
2022-10-25T01:24:29.115Z,93.50
2022-10-25T01:27:04.863Z,93.17
2022-10-25T01:30:04.981Z,92.97
2022-10-25T01:33:10.364Z,93.15
2022-10-25T01:36:18.564Z,93.69
2022-10-25T01:38:51.278Z,93.71
2022-10-25T01:41:28.144Z,93.52
2022-10-25T01:44:03.752Z,93.81
2022-10-25T01:46:49.119Z,93.86
2022-10-25T01:49:24.959Z,93.09
2022-10-25T01:51:51.416Z,93.29
2022-10-25T01:54:25.130Z,92.59
2022-10-25T01:57:27.693Z,92.95
2022-10-25T02:00:00.273Z,92.04
2022-10-25T02:02:38.114Z,92.27
2022-10-25T02:05:26.073Z,92.17
2022-10-25T02:08:07.103Z,92.47
2022-10-25T02:10:40.705Z,92.75
2022-10-25T02:13:27.256Z,92.37
2022-10-25T02:16:20.083Z,92.52
2022-10-25T02:18:50.101Z,92.52
2022-10-25T02:21:18.710Z,92.50
2022-10-25T02:23:47.560Z,92.52
2022-10-25T02:26:15.221Z,93.02
2022-10-25T02:28:42.236Z,93.39
2022-10-25T02:31:14.477Z,93.49
2022-10-25T02:33:46.198Z,93.87
2022-10-25T02:36:18.708Z,92.29
2022-10-25T02:38:45.848Z,93.07
2022-10-25T02:41:12.752Z,92.04
2022-10-25T02:43:39.472Z,91.75
2022-10-25T02:46:11.540Z,91.95
2022-10-25T02:48:38.132Z,91.34
2022-10-25T02:51:06.008Z,91.09
2022-10-25T02:53:33.312Z,90.61
2022-10-25T02:56:02.087Z,90.55
2022-10-25T02:58:33.099Z,89.87
2022-10-25T03:01:00.454Z,89.72
2022-10-25T03:03:28.160Z,89.27
2022-10-25T03:05:54.724Z,88.82
2022-10-25T03:08:21.981Z,89.04
2022-10-25T03:10:48.892Z,89.28
2022-10-25T03:13:15.884Z,88.70
2022-10-25T03:15:44.141Z,87.92
2022-10-25T03:18:10.993Z,87.99
2022-10-25T03:20:37.675Z,88.69
2022-10-25T03:23:04.801Z,88.62
2022-10-25T03:25:31.708Z,87.85
2022-10-25T03:28:00.392Z,88.20
2022-10-25T03:30:27.991Z,87.97
2022-10-25T03:32:54.705Z,88.34
2022-10-25T03:35:21.216Z,88.18
2022-10-25T03:37:49.215Z,88.27
2022-10-25T03:40:16.152Z,88.64
2022-10-25T03:42:42.812Z,88.59
2022-10-25T03:45:10.181Z,89.49
2022-10-25T03:47:36.671Z,89.47
2022-10-25T03:50:03.393Z,89.22
2022-10-25T03:52:29.942Z,89.71
2022-10-25T03:54:56.421Z,89.79
2022-10-25T03:57:22.949Z,90.07
2022-10-25T03:59:49.436Z,90.21
2022-10-25T04:02:16.452Z,89.90
2022-10-25T04:04:42.964Z,89.98
2022-10-25T04:07:09.527Z,90.34
2022-10-25T04:09:35.978Z,91.37
2022-10-25T04:12:02.472Z,91.64
2022-10-25T04:14:28.961Z,91.27
2022-10-25T04:16:55.487Z,92.12
2022-10-25T04:19:22.036Z,92.62
2022-10-25T04:21:48.522Z,92.54
2022-10-25T04:24:15.000Z,92.73
2022-10-25T04:26:41.481Z,92.57
2022-10-25T04:29:08.326Z,92.15
2022-10-25T04:31:35.424Z,91.50
2022-10-25T04:34:02.028Z,91.29
2022-10-25T04:36:30.063Z,91.27
2022-10-25T04:38:56.823Z,91.35
2022-10-25T04:41:23.655Z,91.67
2022-10-25T04:43:52.261Z,92.27
2022-10-25T04:46:20.206Z,92.48
2022-10-25T04:48:47.033Z,92.45
2022-10-25T04:51:13.940Z,92.43
2022-10-25T04:53:40.667Z,92.71
2022-10-25T04:56:10.067Z,92.93
2022-10-25T04:58:37.347Z,93.03
2022-10-25T05:01:08.661Z,92.99
2022-10-25T05:03:35.410Z,93.79
2022-10-25T05:06:06.996Z,93.67
2022-10-25T05:08:33.817Z,93.82
2022-10-25T05:11:00.327Z,94.09
2022-10-25T05:13:26.864Z,94.37
2022-10-25T05:15:57.448Z,93.95
2022-10-25T05:18:24.374Z,93.93
2022-10-25T05:20:55.324Z,92.89
2022-10-25T05:23:22.768Z,93.53
2022-10-25T05:25:50.038Z,93.75
2022-10-25T05:28:16.496Z,93.81
2022-10-25T05:30:43.790Z,94.25
2022-10-25T05:33:10.469Z,94.77
2022-10-25T05:35:36.984Z,95.42
2022-10-25T05:38:03.480Z,95.82
2022-10-25T05:40:29.947Z,95.93
2022-10-25T05:42:56.388Z,95.89
2022-10-25T05:45:23.012Z,96.22
2022-10-25T05:47:49.464Z,96.23
2022-10-25T05:50:15.972Z,96.24
2022-10-25T05:52:43.508Z,96.17
2022-10-25T05:55:10.618Z,96.03
2022-10-25T05:57:37.108Z,96.03
2022-10-25T06:00:05.369Z,95.69
2022-10-25T06:02:31.950Z,96.13
2022-10-25T06:04:58.560Z,96.49
2022-10-25T06:07:25.140Z,96.54
2022-10-25T06:09:51.663Z,96.34
2022-10-25T06:12:18.169Z,96.42
2022-10-25T06:14:44.729Z,96.65
2022-10-25T06:17:13.201Z,97.03
2022-10-25T06:19:39.663Z,96.92
2022-10-25T06:22:06.088Z,96.92
2022-10-25T06:24:32.535Z,96.93
2022-10-25T06:26:59.034Z,96.11
2022-10-25T06:29:25.563Z,95.49
2022-10-25T06:31:52.094Z,95.87
2022-10-25T06:34:18.572Z,95.96
2022-10-25T06:36:45.101Z,96.51
2022-10-25T06:39:11.544Z,95.89
2022-10-25T06:41:38.156Z,95.97
2022-10-25T06:44:06.776Z,95.84
2022-10-25T06:47:04.261Z,96.37
2022-10-25T06:49:25.024Z,96.39
2022-10-25T06:51:51.616Z,95.95
2022-10-25T06:54:18.159Z,94.58
2022-10-25T06:56:44.617Z,94.02
2022-10-25T06:59:11.377Z,94.62
2022-10-25T07:01:37.927Z,94.37
2022-10-25T07:04:04.680Z,93.93
2022-10-25T07:06:37.962Z,94.22
2022-10-25T07:09:06.253Z,93.52
2022-10-25T07:11:33.199Z,93.97
2022-10-25T07:14:00.556Z,94.17
2022-10-25T07:16:28.437Z,93.96
2022-10-25T07:19:02.777Z,93.07
2022-10-25T07:21:31.043Z,92.45
2022-10-25T07:23:57.973Z,93.24
2022-10-25T07:26:32.596Z,92.59
2022-10-25T07:29:00.771Z,91.62
2022-10-25T07:31:36.875Z,90.74
2022-10-25T07:34:05.048Z,91.32
2022-10-25T07:36:31.532Z,91.28
2022-10-25T07:38:58.322Z,90.37
2022-10-25T07:41:25.800Z,89.79
2022-10-25T07:43:52.415Z,90.03
2022-10-25T07:46:18.975Z,88.90
2022-10-25T07:48:45.580Z,87.35
2022-10-25T07:51:14.776Z,89.32
2022-10-25T07:53:41.581Z,88.42
2022-10-25T07:56:18.853Z,89.33
2022-10-25T07:58:48.844Z,87.62
2022-10-25T08:01:23.927Z,88.14
2022-10-25T08:03:52.080Z,89.42
2022-10-25T08:06:18.793Z,86.42
2022-10-25T08:08:45.285Z,86.67
2022-10-25T08:11:11.768Z,87.87
2022-10-25T08:13:39.157Z,88.33
2022-10-25T08:16:06.663Z,87.23
2022-10-25T08:18:34.117Z,87.44
2022-10-25T08:21:03.393Z,86.69
2022-10-25T08:23:32.088Z,86.58
2022-10-25T08:25:59.405Z,86.46
2022-10-25T08:28:26.131Z,86.54
2022-10-25T08:30:55.926Z,86.52
2022-10-25T08:33:23.026Z,85.51
2022-10-25T08:35:49.664Z,85.55
2022-10-25T08:38:16.166Z,84.81
2022-10-25T08:40:45.615Z,85.24
2022-10-25T08:43:30.939Z,86.16
2022-10-25T08:46:03.048Z,85.24
2022-10-25T08:48:37.340Z,84.55
2022-10-25T08:51:12.217Z,84.24
2022-10-25T08:53:43.860Z,84.10
2022-10-25T08:56:17.013Z,83.77
2022-10-25T08:58:55.631Z,83.67
2022-10-25T09:01:29.759Z,84.78
2022-10-25T09:03:58.336Z,83.28
2022-10-25T09:07:03.247Z,82.73
2022-10-25T09:09:45.060Z,81.73
2022-10-25T09:12:28.882Z,82.39
2022-10-25T09:15:06.402Z,81.82
2022-10-25T09:17:43.865Z,82.24
2022-10-25T09:20:25.020Z,81.67
2022-10-25T09:23:00.629Z,81.69
2022-10-25T09:25:49.024Z,81.91
2022-10-25T09:28:21.266Z,81.17
2022-10-25T09:30:49.809Z,81.01
2022-10-25T09:33:23.507Z,80.76
2022-10-25T09:35:58.737Z,79.84
2022-10-25T09:38:34.124Z,81.05
2022-10-25T09:41:10.683Z,79.82
2022-10-25T09:44:07.012Z,79.72
2022-10-25T09:47:18.816Z,78.13
2022-10-25T09:50:06.867Z,79.50
2022-10-25T09:52:55.570Z,79.34
2022-10-25T09:55:39.478Z,79.09
2022-10-25T09:58:07.206Z,80.06
2022-10-25T10:00:39.412Z,80.57
2022-10-25T10:03:05.992Z,79.78
2022-10-25T10:05:32.876Z,79.69
2022-10-25T10:07:59.347Z,79.68
2022-10-25T10:10:32.392Z,79.30
2022-10-25T10:13:11.737Z,77.52
2022-10-25T10:15:48.993Z,78.77
2022-10-25T10:18:24.587Z,77.50
2022-10-25T10:21:14.433Z,78.18
2022-10-25T10:23:43.873Z,76.82
2022-10-25T10:26:20.627Z,76.28
2022-10-25T10:28:51.003Z,77.56
2022-10-25T10:31:19.584Z,76.59
2022-10-25T10:33:51.053Z,76.25
2022-10-25T10:36:24.034Z,75.95
2022-10-25T10:38:50.888Z,76.59
2022-10-25T10:41:20.628Z,76.54
2022-10-25T10:43:47.236Z,76.42
2022-10-25T10:46:17.306Z,76.93
2022-10-25T10:48:46.005Z,76.30
2022-10-25T10:54:23.203Z,74.55
2022-10-25T10:56:57.872Z,75.96
2022-10-25T10:59:51.456Z,74.58
2022-10-25T11:02:24.445Z,73.38
2022-10-25T11:04:53.373Z,72.48
2022-10-25T11:07:42.427Z,73.98
2022-10-25T11:10:15.017Z,73.22
2022-10-25T11:12:42.805Z,72.80
2022-10-25T11:15:16.209Z,71.85
2022-10-25T11:17:53.788Z,73.19
2022-10-25T11:20:48.180Z,71.62
2022-10-25T11:23:30.379Z,72.11
2022-10-25T11:26:12.982Z,73.54
2022-10-25T11:29:01.499Z,71.94
2022-10-25T11:31:52.116Z,72.25
2022-10-25T11:34:34.585Z,72.43
2022-10-25T11:37:10.166Z,73.42
2022-10-25T11:39:58.188Z,73.31
2022-10-25T11:42:33.782Z,73.79
2022-10-25T11:45:21.667Z,74.68
2022-10-25T11:47:55.775Z,75.44
2022-10-25T11:50:28.367Z,79.57
2022-10-25T11:53:23.094Z,83.57
2022-10-25T11:55:49.728Z,84.02
2022-10-25T11:59:08.440Z,86.04
2022-10-25T12:01:41.384Z,87.11
2022-10-25T12:04:40.289Z,87.36
2022-10-25T12:07:15.541Z,87.68
2022-10-25T12:10:03.255Z,86.97
2022-10-25T12:12:45.876Z,85.04
2022-10-25T12:15:20.327Z,85.40
2022-10-25T12:17:47.220Z,86.62
2022-10-25T12:20:23.395Z,84.72
2022-10-25T12:22:53.203Z,82.82
2022-10-25T12:26:03.219Z,80.84
2022-10-25T12:28:43.067Z,78.14
2022-10-25T12:31:20.632Z,77.34
2022-10-25T12:33:59.708Z,77.17
2022-10-25T12:36:32.529Z,75.94
2022-10-25T12:39:02.271Z,75.18
2022-10-25T12:41:33.748Z,75.44
2022-10-25T12:44:06.302Z,74.96
2022-10-25T12:46:41.843Z,74.09
2022-10-25T12:49:23.671Z,76.64
2022-10-25T12:52:25.531Z,73.60
2022-10-25T12:55:10.633Z,73.88
2022-10-25T12:57:56.656Z,75.87
2022-10-25T13:00:24.194Z,72.19
2022-10-25T13:03:24.665Z,73.67
2022-10-25T13:06:09.391Z,73.59
2022-10-25T13:08:39.016Z,73.63
2022-10-25T13:11:08.091Z,73.72
2022-10-25T13:13:41.429Z,74.36
2022-10-25T13:16:10.658Z,74.45
2022-10-25T13:18:46.118Z,74.40
2022-10-25T13:21:14.795Z,73.98
2022-10-25T13:23:45.744Z,73.03
2022-10-25T13:26:15.163Z,73.49
2022-10-25T13:28:50.536Z,72.47
2022-10-25T13:31:47.908Z,71.91
2022-10-25T13:34:14.340Z,71.69
2022-10-25T13:36:51.541Z,71.28
2022-10-25T13:39:43.767Z,71.04
2022-10-25T13:42:16.207Z,71.12
2022-10-25T13:45:04.410Z,72.93
2022-10-25T13:47:46.819Z,73.30
2022-10-25T13:50:41.849Z,72.88
2022-10-25T13:53:34.268Z,73.01
2022-10-25T13:56:23.230Z,72.07
2022-10-25T13:58:54.872Z,73.47
2022-10-25T14:01:25.496Z,72.31
2022-10-25T14:04:10.784Z,72.74
2022-10-25T14:06:41.133Z,71.92
2022-10-25T14:09:28.061Z,72.17
2022-10-25T14:12:12.030Z,71.69
2022-10-25T14:14:52.640Z,72.95
2022-10-25T14:17:26.808Z,70.72
2022-10-25T14:19:57.658Z,71.49
2022-10-25T14:22:35.400Z,73.61
2022-10-25T14:25:28.487Z,69.59
2022-10-25T14:28:16.516Z,73.47
2022-10-25T14:30:44.668Z,75.39
2022-10-25T14:33:31.976Z,80.94
2022-10-25T14:36:10.176Z,86.37
2022-10-25T14:38:58.335Z,90.26
2022-10-25T14:41:27.376Z,91.93
2022-10-25T14:43:54.984Z,92.59
2022-10-25T14:46:27.232Z,93.20
2022-10-25T14:48:56.959Z,94.57
2022-10-25T14:51:38.234Z,93.82
2022-10-25T14:54:06.349Z,93.67
2022-10-25T14:56:49.300Z,94.27
2022-10-25T14:59:21.816Z,94.10
2022-10-25T15:02:04.412Z,94.23
2022-10-25T15:04:35.343Z,94.57
2022-10-25T15:07:02.977Z,94.48
2022-10-25T15:09:42.226Z,94.84
2022-10-25T15:12:12.432Z,95.19
2022-10-25T15:14:38.883Z,94.95
2022-10-25T15:17:15.449Z,94.92
2022-10-25T15:22:30.447Z,95.15
2022-10-25T15:24:57.705Z,94.51
2022-10-25T15:27:35.188Z,94.69
2022-10-25T15:30:04.800Z,94.34
2022-10-25T15:32:35.948Z,93.47
2022-10-25T15:35:02.794Z,93.45
2022-10-25T15:37:30.049Z,93.66
2022-10-25T15:39:57.206Z,94.40
2022-10-25T15:42:25.612Z,94.78
2022-10-25T15:44:52.184Z,94.40
2022-10-25T15:47:33.308Z,94.80
2022-10-25T15:50:02.499Z,94.94
2022-10-25T15:52:29.066Z,95.19
2022-10-25T15:54:55.601Z,95.07
2022-10-25T15:57:22.243Z,94.99
2022-10-25T15:59:48.716Z,95.34
2022-10-25T16:02:27.132Z,95.40
2022-10-25T16:04:54.096Z,95.53
2022-10-25T16:07:23.838Z,94.87
2022-10-25T16:09:50.489Z,94.94
2022-10-25T16:12:21.938Z,95.50
2022-10-25T16:14:50.330Z,95.88
2022-10-25T16:17:19.601Z,96.34
2022-10-25T16:20:05.881Z,96.54
2022-10-25T16:22:32.531Z,96.62
2022-10-25T16:24:58.978Z,96.84
2022-10-25T16:27:25.399Z,96.72
2022-10-25T16:29:51.877Z,96.78
2022-10-25T16:32:19.455Z,97.01
2022-10-25T16:34:46.152Z,96.59
2022-10-25T16:37:12.610Z,96.38
2022-10-25T16:39:40.116Z,96.46
2022-10-25T16:42:26.991Z,96.81
2022-10-25T16:44:53.493Z,96.89
2022-10-25T16:47:21.502Z,97.30
2022-10-25T16:49:48.151Z,97.24
2022-10-25T16:52:15.703Z,97.19
2022-10-25T16:54:42.504Z,97.31
2022-10-25T16:57:09.335Z,97.45
2022-10-25T16:59:35.773Z,97.60
2022-10-25T17:02:02.274Z,97.69
2022-10-25T17:04:28.788Z,97.90
2022-10-25T17:06:55.280Z,97.89
2022-10-25T17:09:21.752Z,97.79
2022-10-25T17:11:48.215Z,97.99
2022-10-25T17:14:14.749Z,97.97
2022-10-25T17:16:43.982Z,98.12
2022-10-25T17:19:11.270Z,98.22
2022-10-25T17:21:37.845Z,98.20
2022-10-25T17:24:06.602Z,98.25
2022-10-25T17:26:33.055Z,98.37
2022-10-25T17:29:00.920Z,98.50
2022-10-25T17:31:32.636Z,98.50
2022-10-25T17:34:00.364Z,98.38
2022-10-25T17:36:27.023Z,98.38
2022-10-25T17:38:54.388Z,98.54
2022-10-25T17:41:20.995Z,98.59
2022-10-25T17:43:47.496Z,98.52
2022-10-25T17:46:19.272Z,98.05
2022-10-25T17:48:46.608Z,98.56
2022-10-25T17:51:14.803Z,98.81
2022-10-25T17:53:41.981Z,98.64
2022-10-25T17:56:12.894Z,98.49
2022-10-25T17:58:43.769Z,98.35
2022-10-25T18:01:12.370Z,98.34
2022-10-25T18:03:39.330Z,98.67
2022-10-25T18:06:09.553Z,98.75
2022-10-25T18:08:36.764Z,98.62
2022-10-25T18:11:10.172Z,98.77
2022-10-25T18:13:38.307Z,98.42
2022-10-25T18:18:38.624Z,98.57
2022-10-25T18:21:06.578Z,98.28
2022-10-25T18:23:33.897Z,98.21
2022-10-25T18:26:00.536Z,98.27
2022-10-25T18:28:27.410Z,98.15
2022-10-25T18:31:05.452Z,97.66
2022-10-25T18:33:33.112Z,97.94
2022-10-25T18:36:01.463Z,97.94
2022-10-25T18:38:28.300Z,97.64
2022-10-25T18:40:55.406Z,97.90
2022-10-25T18:43:23.573Z,97.79
2022-10-25T18:45:50.685Z,97.89
2022-10-25T18:48:17.135Z,98.02
2022-10-25T18:50:43.597Z,97.93
2022-10-25T18:53:10.047Z,97.97
2022-10-25T18:55:36.484Z,97.82
2022-10-25T18:58:02.915Z,97.83
2022-10-25T19:00:31.405Z,97.82
2022-10-25T19:02:57.917Z,97.90
2022-10-25T19:05:28.165Z,97.95
2022-10-25T19:07:55.797Z,97.97
2022-10-25T19:10:23.152Z,97.42
2022-10-25T19:12:51.203Z,97.27
2022-10-25T19:15:17.831Z,96.89
2022-10-25T19:17:44.300Z,96.94
2022-10-25T19:20:10.843Z,96.67
2022-10-25T19:22:37.348Z,96.93
2022-10-25T19:25:04.069Z,96.75
2022-10-25T19:27:30.644Z,96.87
2022-10-25T19:29:57.820Z,96.72
2022-10-25T19:32:24.497Z,97.04
2022-10-25T19:37:22.502Z,97.32
2022-10-25T19:39:49.180Z,97.31
2022-10-25T19:42:15.778Z,97.62
2022-10-25T19:44:42.252Z,98.02
2022-10-25T19:47:08.718Z,97.96
2022-10-25T19:49:35.204Z,98.02
2022-10-25T19:52:01.807Z,97.92
2022-10-25T19:54:28.284Z,97.87
2022-10-25T19:56:55.479Z,97.62
2022-10-25T19:59:22.064Z,97.79
2022-10-25T20:01:49.518Z,97.67
2022-10-25T20:04:16.366Z,97.72
2022-10-25T20:06:42.874Z,97.72
2022-10-25T20:09:10.333Z,97.33
2022-10-25T20:11:36.781Z,97.29
2022-10-25T20:14:03.527Z,97.14
2022-10-25T20:16:31.065Z,97.34
2022-10-25T20:19:00.755Z,97.32
2022-10-25T20:21:32.101Z,97.45
2022-10-25T20:24:01.636Z,97.53
2022-10-25T20:26:37.163Z,97.49
2022-10-25T20:29:15.643Z,97.59
2022-10-25T20:31:45.393Z,97.72
2022-10-25T20:34:11.979Z,97.69
2022-10-25T20:36:39.051Z,97.47
2022-10-25T20:39:05.625Z,97.90
2022-10-25T20:41:35.069Z,97.84
2022-10-25T20:44:04.558Z,97.46
2022-10-25T20:46:32.457Z,97.64
2022-10-25T20:49:00.050Z,97.39
2022-10-25T20:51:27.380Z,97.64
2022-10-25T20:53:54.005Z,97.52
2022-10-25T20:56:21.746Z,97.53
2022-10-25T20:58:48.686Z,97.90
2022-10-25T21:01:15.531Z,97.55
2022-10-25T21:03:42.328Z,97.79
2022-10-25T21:06:14.322Z,97.85
2022-10-25T21:08:40.929Z,97.83
2022-10-25T21:11:10.272Z,97.82
2022-10-25T21:13:37.524Z,97.83
2022-10-25T21:16:09.428Z,97.74
2022-10-25T21:18:37.277Z,97.92
2022-10-25T21:21:07.332Z,97.87
2022-10-25T21:23:33.882Z,97.99
2022-10-25T21:26:02.785Z,97.46
2022-10-25T21:28:35.013Z,97.73
2022-10-25T21:31:12.147Z,97.64
2022-10-25T21:33:39.159Z,97.92
2022-10-25T21:36:11.475Z,97.67
2022-10-25T21:38:38.496Z,97.73
2022-10-25T21:41:10.868Z,98.01
2022-10-25T21:43:40.625Z,97.94
2022-10-25T21:46:07.216Z,97.97
2022-10-25T21:48:34.897Z,97.94
2022-10-25T21:51:01.738Z,98.07
2022-10-25T21:53:28.581Z,97.64
2022-10-25T21:56:12.586Z,97.57
2022-10-25T21:58:40.776Z,97.67
2022-10-25T22:01:12.429Z,97.67
2022-10-25T22:03:40.049Z,97.64
2022-10-25T22:06:11.797Z,97.76
2022-10-25T22:08:38.402Z,97.77
2022-10-25T22:11:16.985Z,97.80
2022-10-25T22:13:44.082Z,97.40
2022-10-25T22:16:14.192Z,97.21
2022-10-25T22:18:41.099Z,96.94
2022-10-25T22:21:12.364Z,97.35
2022-10-25T22:23:39.850Z,97.72
2022-10-25T22:26:09.047Z,97.65
2022-10-25T22:28:39.816Z,97.64
2022-10-25T22:31:13.267Z,97.49
2022-10-25T22:33:40.614Z,97.88
2022-10-25T22:36:13.544Z,98.09
2022-10-25T22:38:40.192Z,97.60
2022-10-25T22:41:11.378Z,97.73
2022-10-25T22:43:39.011Z,97.46
2022-10-25T22:46:10.497Z,97.46
2022-10-25T22:48:38.572Z,97.00
2022-10-25T22:51:05.932Z,97.07
2022-10-25T22:53:34.456Z,97.17
2022-10-25T22:56:02.228Z,97.28
2022-10-25T22:58:32.472Z,96.82
2022-10-25T23:30:35.223Z,97.01
2022-10-25T23:33:01.828Z,97.12
2022-10-25T23:35:28.756Z,97.12
2022-10-25T23:37:55.301Z,97.43
2022-10-25T23:40:21.887Z,97.02
2022-10-25T23:42:48.301Z,96.42
2022-10-25T23:45:14.784Z,96.74
2022-10-25T23:47:41.829Z,96.93
2022-10-25T23:50:09.172Z,97.35
2022-10-25T23:52:35.703Z,97.29
2022-10-25T23:55:02.161Z,97.08
2022-10-25T23:57:28.632Z,97.55
2022-10-25T23:59:55.090Z,97.72
